Soleil Weather Down

Nearby METAR Reports

 

KCNI - Canton/Cherokee, Georgia, USA
Distance from station: ENE 6mi, 10km
Updated: Sat, 19-Sep-2020 8:30pm EDT
Mostly cloudy
Mostly cloudy
 Wind from calm
Wind: Calm
Temperature: 64°F , 18°C
Dew Point: 59°F , 15°C
Humidity: 83%
Barometer: 30.23 inHg , 1023.7 hPa
Clouds: Mostly cloudy
Visibility: 10 miles , 16 km
Cloud details: Partly cloudy 4900 ft
Mostly cloudy 6000 ft
2020/09/20 00:30 KCNI 200030Z AUTO 00000KT 10SM SCT049 BKN060 18/15 A3023 RMK AO2
KRYY - Marietta Mccolum, Georgia, USA
Distance from station: SSW 18mi, 29km
Updated: Sat, 19-Sep-2020 8:50pm EDT
Mostly cloudy
Mostly cloudy
 Wind from E
Wind: E 7 mph , 11 km/h
Temperature: 64°F , 18°C
Dew Point: 57°F , 14°C
Humidity: 78%
Barometer: 30.21 inHg , 1023 hPa
Clouds: Mostly cloudy
Visibility: 10 miles , 16 km
Cloud details: Mostly cloudy 6000 ft
2020/09/20 00:50 KRYY 200050Z 10006KT 10SM BKN060 18/14 A3021 RMK AO2 SLP949 T01830139 $
KVPC - Cartersville, Georgia, USA
Distance from station: WSW 22mi, 35km
Updated: Sat, 19-Sep-2020 7:53pm EDT
Overcast
Overcast
 Wind from calm
Wind: Calm
Temperature: 66°F , 19°C
Dew Point: 61°F , 16°C
Humidity: 83%
Barometer: 30.19 inHg , 1022.4 hPa
Clouds: Overcast
Visibility: 10 miles , 16 km
Cloud details: Overcast 6000 ft
2020/09/19 23:53 KVPC 192353Z AUTO 00000KT 10SM OVC060 19/16 A3019 RMK AO2 SLP214 T01940156 10233 20194 53012
 
KMGE - Dobbins Afb/Mari, Georgia, USA
Distance from station: S 24mi, 39km
Updated: Sat, 19-Sep-2020 7:56pm EDT
Overcast
Overcast
 Wind from ENE
Wind: ENE 2 mph , 4 km/h
Temperature: 66°F , 19°C
Dew Point: 57°F , 14°C
Humidity: 73%
Barometer: 30.18 inHg , 1022 hPa
Clouds: Overcast
Visibility: 10 miles , 16 km
Cloud details: Few Clouds 15000 ft
Overcast 20000 ft
2020/09/19 23:56 KMGE 192356Z 07002KT 10SM FEW150 OVC200 19/14 A3018 RMK AO2A SLP215 T01870140 10217 20187 52013 $
KPDK - Peachtree/Dekalb, Georgia, USA
Distance from station: SSE 29mi, 47km
Updated: Sat, 19-Sep-2020 7:53pm EDT
Clear
Clear
 Wind from E
Wind: E 3 mph , 6 km/h
Temperature: 64°F , 18°C
Dew Point: 57°F , 14°C
Humidity: 78%
Barometer: 30.19 inHg , 1022.4 hPa
Clouds: Clear
Visibility: 10 miles , 16 km
2020/09/19 23:53 KPDK 192353Z 09003KT 10SM CLR 18/14 A3019 RMK AO2 SLP215 T01830139 10211 20183 53014
KFTY - Atlanta/Fulton, Georgia, USA
Distance from station: S 34mi, 54km
Updated: Sat, 19-Sep-2020 7:53pm EDT
Clear
Clear
 Wind from E
Wind: E 6 mph , 9 km/h
Temperature: 66°F , 19°C
Dew Point: 55°F , 13°C
Humidity: 68%
Barometer: 30.18 inHg , 1022 hPa
Clouds: Clear
Visibility: 10 miles , 16 km
2020/09/19 23:53 KFTY 192353Z 09005KT 10SM CLR 19/13 A3018 RMK AO2 SLP213 T01940128 10217 20194 53013
 
KPUJ - Atlanta/Paulding, Georgia, USA
Distance from station: SW 34mi, 55km
Updated: Sat, 19-Sep-2020 8:35pm EDT
Overcast
Overcast
 Wind from E
Wind: E 5 mph , 7 km/h
Temperature: 63°F , 17°C
Dew Point: 57°F , 14°C
Humidity: 83%
Barometer: 30.20 inHg , 1022.7 hPa
Clouds: Overcast
Visibility: 10 miles , 16 km
Cloud details: Overcast 5000 ft
2020/09/20 00:35 KPUJ 200035Z AUTO 08004KT 10SM OVC050 17/14 A3020 RMK AO2
KDNN - Dalton, Georgia, USA
Distance from station: NW 37mi, 59km
Updated: Sat, 19-Sep-2020 8:35pm EDT
Overcast
Overcast
 Wind from calm
Wind: Calm
Temperature: 70°F , 21°C
Dew Point: 59°F , 15°C
Humidity: 69%
Barometer: 30.21 inHg , 1023 hPa
Clouds: Overcast
Visibility: 10 miles , 16 km
Cloud details: Overcast 3000 ft
2020/09/20 00:35 KDNN 200035Z AUTO 00000KT 10SM OVC030 21/15 A3021 RMK AO2
KLZU - Lawrenceville, Georgia, USA
Distance from station: ESE 37mi, 59km
Updated: Sat, 19-Sep-2020 7:56pm EDT
Clear
Clear
 Wind from varies
Wind: varies 3 mph , 6 km/h
Temperature: 64°F , 18°C
Dew Point: 59°F , 15°C
Humidity: 83%
Barometer: 30.20 inHg , 1022.7 hPa
Clouds: Clear
Visibility: 10 miles , 16 km
2020/09/19 23:56 KLZU 192356Z VRB03KT 10SM CLR 18/15 A3020 RMK AO2 SLP233 T01780150 10217 20178 53014
 
KRMG - Rome, Georgia, USA
Distance from station: W 38mi, 61km
Updated: Sat, 19-Sep-2020 7:53pm EDT
Overcast
Overcast
 Wind from calm
Wind: Calm
Temperature: 70°F , 21°C
Dew Point: 57°F , 14°C
Humidity: 64%
Barometer: 30.17 inHg , 1021.7 hPa
Clouds: Overcast
Visibility: 10 miles , 16 km
Cloud details: Overcast 6000 ft
2020/09/19 23:53 KRMG 192353Z AUTO 00000KT 10SM OVC060 21/14 A3017 RMK AO2 SLP211 T02060139 10239 20206 53010
KGVL - Gainesville, Georgia, USA
Distance from station: E 39mi, 62km
Updated: Sat, 19-Sep-2020 7:53pm EDT
Clear
Clear
 Wind from E
Wind: E 5 mph , 7 km/h
Temperature: 63°F , 17°C
Dew Point: 55°F , 13°C
Humidity: 77%
Barometer: 30.22 inHg , 1023.4 hPa
Clouds: Clear
Visibility: 10 miles , 16 km
2020/09/19 23:53 KGVL 192353Z AUTO 09004KT 10SM CLR 17/13 A3022 RMK AO2 SLP225 T01720128 10211 20172 53010
KATL - Atlanta, Georgia, USA
Distance from station: S 44mi, 71km
Updated: Sat, 19-Sep-2020 8:52pm EDT
Overcast
Overcast
 Wind from E
Wind: E 9 mph , 15 km/h
Temperature: 66°F , 19°C
Dew Point: 55°F , 13°C
Humidity: 68%
Barometer: 30.20 inHg , 1022.7 hPa
Clouds: Overcast
Visibility: 10 miles , 16 km
Cloud details: Few Clouds 16000 ft
Mostly cloudy 20000 ft
Overcast 25000 ft
2020/09/20 00:52 KATL 200052Z 08008KT 10SM FEW160 BKN200 OVC250 19/13 A3020 RMK AO2 SLP222 T01890133